Amqui, Quebec

8:29 PM ADT on September 01, 2014 (GMT -0300)
IQUBECMA3 | Change Station
CLOSE
Current Station
Personal Weather Station
Location: Matane, Qubec
Elevation: 26 ft
Nearby Weather Stations

Elev 26 ft 48.80 °N, 67.54 °W | Updated 4 minutes ago

Mostly Cloudy
Mostly Cloudy
60.7 °F
Feels Like 60.7 °F
N
0.0
Wind Variable Wind from North
Gusts 0.0 mph

Tomorrow is forecast to be nearly the same temperature as today.

Today
High -- | Low -- °F
--% Chance of Precip.
Yesterday
High -- | Low -- °F
Precip. -- in
6:46 AM 8:11 PM
Waxing Crescent, 45% visible
Pressure 29.93 in
Visibility 15.0 miles
Clouds Mostly Cloudy 7000 ft
Dew Point 58 °F
Humidity 92%
Rainfall -999.00 in
Snow Depth Not available.
UV 0 out of 12
Pollen Not available.
Air Quality Not available.
Flu Activity Not available.
METAR CYYY 012300Z 07006KT 15SM BKN070 16/16 A2993 RMK AC5 SLP135 DENSITY ALT 200FT

More Conditions Fewer Conditions

Pressure 29.93 in
Visibility 15.0 miles
Clouds Mostly Cloudy 7000 ft
Dew Point 58 °F
Humidity 92%
Rainfall -999.00 in
Snow Depth Not available.
UV 0 out of 12
Pollen Not available.
Air Quality Not available.
Flu Activity Not available.
METAR CYYY 012300Z 07006KT 15SM BKN070 16/16 A2993 RMK AC5 SLP135 DENSITY ALT 200FT

More Conditions Fewer Conditions

10-Day Weather Forecast

Almanac

Astronomy

Sep. 01, 2014 Rise Set
Actual Time 6:46 AM ADT 8:11 PM ADT
Civil Twilight 6:14 AM ADT 8:44 PM ADT
Nautical Twilight 5:34 AM ADT 9:23 PM ADT
Astronomical Twilight 4:51 AM ADT 10:06 PM ADT
Moon 2:01 PM ADT 11:36 PM ADT
Length of Visible Light 14h 29m
Length of Day
13h 24m
Tomorrow will be 3m 26s shorter.
Waxing Crescent, 45% of the Moon is Illuminated
Today
Waxing Crescent
Sep 2
First Quarter
Sep 8
Full
Sep 15
Last Quarter
Sep 24
New

Today's Extremes

Country Highs Country Lows

Community

WunderPhotos

Upload Photos

1,749,430 photos uploaded!

Nearby

Snow Depth

Not available.

Earthquake Activity

City Distance Mag. Time & Date
No recent earthquake activity has been reported nearby.
Minimum magnitude displayed is 2.5.

Coastal Water Temperatures

Place Temperature
No Stations Reporting

Nearby Weather Stations